sensor_id;sensor_type;location;lat;lon;timestamp;pressure;altitude;pressure_sealevel;temperature;humidity
59106;BME280;44891;50.204;8.132;2022-07-09T00:02:10;99474.31;;;13.88;79.88
59106;BME280;44891;50.204;8.132;2022-07-09T00:06:14;99461.41;;;13.80;80.49
59106;BME280;44891;50.204;8.132;2022-07-09T00:10:16;99460.97;;;13.71;81.19
59106;BME280;44891;50.204;8.132;2022-07-09T00:14:18;99458.56;;;13.70;81.56
59106;BME280;44891;50.204;8.132;2022-07-09T00:18:20;99456.47;;;13.72;81.63
59106;BME280;44891;50.204;8.132;2022-07-09T00:22:23;99456.03;;;13.75;81.80
59106;BME280;44891;50.204;8.132;2022-07-09T00:26:26;99445.47;;;13.75;81.92
59106;BME280;44891;50.204;8.132;2022-07-09T00:30:28;99446.19;;;13.82;81.48
59106;BME280;44891;50.204;8.132;2022-07-09T00:34:30;99443.03;;;13.73;80.03
59106;BME280;44891;50.204;8.132;2022-07-09T00:38:33;99444.31;;;13.71;79.06
59106;BME280;44891;50.204;8.132;2022-07-09T00:42:35;99439.72;;;13.66;79.12
59106;BME280;44891;50.204;8.132;2022-07-09T00:46:37;99440.53;;;13.55;79.96
59106;BME280;44891;50.204;8.132;2022-07-09T00:50:41;99436.00;;;13.44;81.08
59106;BME280;44891;50.204;8.132;2022-07-09T00:54:45;99436.16;;;13.49;80.62
59106;BME280;44891;50.204;8.132;2022-07-09T00:58:47;99439.47;;;13.44;81.04
59106;BME280;44891;50.204;8.132;2022-07-09T01:02:49;99441.03;;;13.33;82.29
59106;BME280;44891;50.204;8.132;2022-07-09T01:06:51;99430.75;;;13.44;81.84
59106;BME280;44891;50.204;8.132;2022-07-09T01:10:55;99429.13;;;13.43;81.10
59106;BME280;44891;50.204;8.132;2022-07-09T01:14:57;99429.69;;;13.45;81.09
59106;BME280;44891;50.204;8.132;2022-07-09T01:18:59;99425.66;;;13.30;81.04
59106;BME280;44891;50.204;8.132;2022-07-09T01:23:03;99430.47;;;13.33;81.02
59106;BME280;44891;50.204;8.132;2022-07-09T01:27:06;99428.06;;;13.32;81.44
59106;BME280;44891;50.204;8.132;2022-07-09T01:31:08;99423.13;;;13.24;81.73
59106;BME280;44891;50.204;8.132;2022-07-09T01:35:10;99418.31;;;13.21;81.19
59106;BME280;44891;50.204;8.132;2022-07-09T01:39:14;99412.63;;;13.17;81.97
59106;BME280;44891;50.204;8.132;2022-07-09T01:43:16;99412.00;;;13.22;79.96
59106;BME280;44891;50.204;8.132;2022-07-09T01:47:18;99403.75;;;13.30;79.66
59106;BME280;44891;50.204;8.132;2022-07-09T01:51:20;99404.25;;;13.09;80.73
59106;BME280;44891;50.204;8.132;2022-07-09T01:55:24;99397.13;;;13.09;80.08
59106;BME280;44891;50.204;8.132;2022-07-09T01:59:26;99401.91;;;13.00;81.01
59106;BME280;44891;50.204;8.132;2022-07-09T02:03:28;99394.25;;;13.11;80.00
59106;BME280;44891;50.204;8.132;2022-07-09T02:07:31;99391.41;;;13.12;80.73
59106;BME280;44891;50.204;8.132;2022-07-09T02:11:34;99389.00;;;13.11;80.46
59106;BME280;44891;50.204;8.132;2022-07-09T02:15:37;99375.66;;;13.05;81.33
59106;BME280;44891;50.204;8.132;2022-07-09T02:19:40;99370.53;;;13.11;81.63
59106;BME280;44891;50.204;8.132;2022-07-09T02:23:42;99377.50;;;13.05;81.95
59106;BME280;44891;50.204;8.132;2022-07-09T02:27:45;99368.22;;;13.02;80.57
59106;BME280;44891;50.204;8.132;2022-07-09T02:31:47;99372.09;;;13.00;80.54
59106;BME280;44891;50.204;8.132;2022-07-09T02:35:49;99371.47;;;12.86;80.22
59106;BME280;44891;50.204;8.132;2022-07-09T02:39:51;99373.91;;;12.88;80.35
59106;BME280;44891;50.204;8.132;2022-07-09T02:43:55;99372.47;;;12.73;80.96
59106;BME280;44891;50.204;8.132;2022-07-09T02:47:57;99366.28;;;12.79;80.10
59106;BME280;44891;50.204;8.132;2022-07-09T02:51:59;99367.78;;;12.75;80.07
59106;BME280;44891;50.204;8.132;2022-07-09T02:56:02;99371.19;;;12.64;80.78
59106;BME280;44891;50.204;8.132;2022-07-09T03:00:07;99370.63;;;12.74;81.28
59106;BME280;44891;50.204;8.132;2022-07-09T03:04:09;99375.19;;;12.67;83.61
59106;BME280;44891;50.204;8.132;2022-07-09T03:08:11;99360.72;;;12.58;84.53
59106;BME280;44891;50.204;8.132;2022-07-09T03:12:13;99360.94;;;12.56;84.81
59106;BME280;44891;50.204;8.132;2022-07-09T03:16:17;99358.88;;;12.58;83.78
59106;BME280;44891;50.204;8.132;2022-07-09T03:20:19;99362.47;;;12.64;83.56
59106;BME280;44891;50.204;8.132;2022-07-09T03:24:21;99356.91;;;12.53;83.92
59106;BME280;44891;50.204;8.132;2022-07-09T03:28:23;99360.00;;;12.50;84.40
59106;BME280;44891;50.204;8.132;2022-07-09T03:32:27;99353.75;;;12.63;83.93
59106;BME280;44891;50.204;8.132;2022-07-09T03:36:29;99356.03;;;12.60;84.49
59106;BME280;44891;50.204;8.132;2022-07-09T03:40:31;99352.50;;;12.66;84.89
59106;BME280;44891;50.204;8.132;2022-07-09T03:44:33;99360.31;;;12.72;84.24
59106;BME280;44891;50.204;8.132;2022-07-09T03:48:37;99353.22;;;12.73;83.36
59106;BME280;44891;50.204;8.132;2022-07-09T03:52:39;99352.06;;;12.69;82.48
59106;BME280;44891;50.204;8.132;2022-07-09T03:56:41;99355.72;;;12.68;82.06
59106;BME280;44891;50.204;8.132;2022-07-09T04:00:43;99352.16;;;12.74;81.98
59106;BME280;44891;50.204;8.132;2022-07-09T04:04:46;99345.13;;;12.86;82.36
59106;BME280;44891;50.204;8.132;2022-07-09T04:08:49;99348.03;;;12.96;82.81
59106;BME280;44891;50.204;8.132;2022-07-09T04:12:51;99347.94;;;13.03;83.53
59106;BME280;44891;50.204;8.132;2022-07-09T04:16:53;99346.91;;;13.16;82.82
59106;BME280;44891;50.204;8.132;2022-07-09T04:20:56;99348.69;;;13.22;82.98
59106;BME280;44891;50.204;8.132;2022-07-09T04:24:58;99340.25;;;13.13;83.14
59106;BME280;44891;50.204;8.132;2022-07-09T04:29:01;99360.59;;;13.24;83.12
59106;BME280;44891;50.204;8.132;2022-07-09T04:33:03;99355.69;;;13.40;83.22
59106;BME280;44891;50.204;8.132;2022-07-09T04:37:07;99358.09;;;13.53;82.85
59106;BME280;44891;50.204;8.132;2022-07-09T04:41:09;99350.78;;;13.55;82.65
59106;BME280;44891;50.204;8.132;2022-07-09T04:45:11;99358.22;;;13.46;82.77
59106;BME280;44891;50.204;8.132;2022-07-09T04:49:13;99352.38;;;13.56;82.43
59106;BME280;44891;50.204;8.132;2022-07-09T04:53:17;99351.72;;;13.60;82.70
59106;BME280;44891;50.204;8.132;2022-07-09T04:57:19;99350.44;;;13.75;81.90
59106;BME280;44891;50.204;8.132;2022-07-09T05:01:21;99354.00;;;13.80;82.63
59106;BME280;44891;50.204;8.132;2022-07-09T05:05:24;99356.16;;;13.95;81.76
59106;BME280;44891;50.204;8.132;2022-07-09T05:09:28;99346.59;;;14.06;81.52
59106;BME280;44891;50.204;8.132;2022-07-09T05:13:30;99341.78;;;14.14;81.23
59106;BME280;44891;50.204;8.132;2022-07-09T05:17:33;99337.47;;;14.25;81.44
59106;BME280;44891;50.204;8.132;2022-07-09T05:21:36;99340.19;;;14.42;80.53
59106;BME280;44891;50.204;8.132;2022-07-09T05:25:39;99339.16;;;14.55;80.33
59106;BME280;44891;50.204;8.132;2022-07-09T05:29:42;99338.81;;;14.80;79.92
59106;BME280;44891;50.204;8.132;2022-07-09T05:33:44;99336.19;;;15.13;78.87
59106;BME280;44891;50.204;8.132;2022-07-09T05:37:46;99342.91;;;15.38;78.74
59106;BME280;44891;50.204;8.132;2022-07-09T05:41:49;99345.81;;;15.53;79.47
59106;BME280;44891;50.204;8.132;2022-07-09T05:45:51;99342.38;;;15.69;78.78
59106;BME280;44891;50.204;8.132;2022-07-09T05:49:53;99345.19;;;16.01;77.41
59106;BME280;44891;50.204;8.132;2022-07-09T05:53:56;99342.97;;;16.15;77.86
59106;BME280;44891;50.204;8.132;2022-07-09T05:57:59;99349.81;;;16.33;77.12
59106;BME280;44891;50.204;8.132;2022-07-09T06:02:01;99360.72;;;16.58;76.27
59106;BME280;44891;50.204;8.132;2022-07-09T06:06:06;99354.13;;;16.88;75.69
59106;BME280;44891;50.204;8.132;2022-07-09T06:10:09;99358.97;;;16.96;75.59
59106;BME280;44891;50.204;8.132;2022-07-09T06:14:14;99357.56;;;17.16;74.74
59106;BME280;44891;50.204;8.132;2022-07-09T06:18:16;99365.56;;;17.21;74.77
59106;BME280;44891;50.204;8.132;2022-07-09T06:22:18;99356.84;;;17.62;73.44
59106;BME280;44891;50.204;8.132;2022-07-09T06:26:20;99360.00;;;17.91;72.10
59106;BME280;44891;50.204;8.132;2022-07-09T06:30:24;99361.16;;;18.11;71.52
59106;BME280;44891;50.204;8.132;2022-07-09T06:34:27;99352.47;;;18.36;71.39
59106;BME280;44891;50.204;8.132;2022-07-09T06:38:30;99365.53;;;18.37;71.86
59106;BME280;44891;50.204;8.132;2022-07-09T06:42:32;99359.47;;;18.57;70.77
59106;BME280;44891;50.204;8.132;2022-07-09T06:46:43;99356.06;;;18.87;68.76
59106;BME280;44891;50.204;8.132;2022-07-09T06:50:45;99359.28;;;18.89;69.54
59106;BME280;44891;50.204;8.132;2022-07-09T06:54:47;99349.16;;;18.86;70.11
59106;BME280;44891;50.204;8.132;2022-07-09T06:58:49;99354.25;;;19.13;68.37
59106;BME280;44891;50.204;8.132;2022-07-09T07:02:53;99353.72;;;18.96;68.82
59106;BME280;44891;50.204;8.132;2022-07-09T07:06:59;99351.59;;;19.28;67.23
59106;BME280;44891;50.204;8.132;2022-07-09T07:11:02;99358.53;;;19.35;67.49
59106;BME280;44891;50.204;8.132;2022-07-09T07:19:09;99364.63;;;19.66;65.95
59106;BME280;44891;50.204;8.132;2022-07-09T07:23:12;99363.03;;;19.60;65.58
59106;BME280;44891;50.204;8.132;2022-07-09T07:27:14;99362.75;;;19.56;65.47
59106;BME280;44891;50.204;8.132;2022-07-09T07:31:16;99341.16;;;19.47;65.16
59106;BME280;44891;50.204;8.132;2022-07-09T07:35:20;99355.84;;;19.65;65.52
59106;BME280;44891;50.204;8.132;2022-07-09T07:39:22;99341.09;;;19.98;64.40
59106;BME280;44891;50.204;8.132;2022-07-09T07:43:25;99349.13;;;19.88;65.07
59106;BME280;44891;50.204;8.132;2022-07-09T07:47:27;99344.09;;;19.66;65.34
59106;BME280;44891;50.204;8.132;2022-07-09T07:51:31;99351.06;;;19.62;64.83
59106;BME280;44891;50.204;8.132;2022-07-09T07:55:34;99269.81;;;19.29;65.03
59106;BME280;44891;50.204;8.132;2022-07-09T07:59:36;99331.03;;;19.75;64.61
59106;BME280;44891;50.204;8.132;2022-07-09T08:03:38;99330.28;;;20.34;63.24
59106;BME280;44891;50.204;8.132;2022-07-09T08:07:42;99313.81;;;20.17;62.22
59106;BME280;44891;50.204;8.132;2022-07-09T08:11:44;99327.84;;;20.37;61.86
59106;BME280;44891;50.204;8.132;2022-07-09T08:15:46;99324.50;;;20.66;60.23
59106;BME280;44891;50.204;8.132;2022-07-09T08:19:48;99332.91;;;20.88;58.45
59106;BME280;44891;50.204;8.132;2022-07-09T08:23:52;99265.66;;;20.47;58.06
59106;BME280;44891;50.204;8.132;2022-07-09T08:27:56;99307.44;;;20.67;59.34
59106;BME280;44891;50.204;8.132;2022-07-09T08:31:58;99317.91;;;20.53;58.73
59106;BME280;44891;50.204;8.132;2022-07-09T08:36:00;99323.53;;;20.91;58.65
59106;BME280;44891;50.204;8.132;2022-07-09T08:40:04;99318.69;;;20.98;58.20
59106;BME280;44891;50.204;8.132;2022-07-09T08:44:10;99324.72;;;21.14;58.08
59106;BME280;44891;50.204;8.132;2022-07-09T08:48:12;99331.16;;;20.74;59.73
59106;BME280;44891;50.204;8.132;2022-07-09T08:52:15;99323.84;;;20.45;58.86
59106;BME280;44891;50.204;8.132;2022-07-09T08:56:19;99320.34;;;20.40;58.59
59106;BME280;44891;50.204;8.132;2022-07-09T09:00:21;99309.56;;;20.65;57.60
59106;BME280;44891;50.204;8.132;2022-07-09T09:04:24;99306.19;;;20.94;57.36
59106;BME280;44891;50.204;8.132;2022-07-09T09:08:26;99309.44;;;21.20;56.17
59106;BME280;44891;50.204;8.132;2022-07-09T09:12:29;99299.88;;;21.13;55.21
59106;BME280;44891;50.204;8.132;2022-07-09T09:16:41;99297.94;;;20.85;56.47
59106;BME280;44891;50.204;8.132;2022-07-09T09:20:46;99301.44;;;21.20;54.21
59106;BME280;44891;50.204;8.132;2022-07-09T09:24:51;99283.00;;;21.47;53.99
59106;BME280;44891;50.204;8.132;2022-07-09T09:28:56;99287.59;;;21.89;53.78
59106;BME280;44891;50.204;8.132;2022-07-09T09:33:00;99290.91;;;21.33;54.97
59106;BME280;44891;50.204;8.132;2022-07-09T09:37:03;99284.16;;;21.41;53.84
59106;BME280;44891;50.204;8.132;2022-07-09T09:41:05;99280.78;;;22.02;52.88
59106;BME280;44891;50.204;8.132;2022-07-09T09:45:10;99281.69;;;22.16;52.60
59106;BME280;44891;50.204;8.132;2022-07-09T09:49:14;99278.03;;;22.07;53.36
59106;BME280;44891;50.204;8.132;2022-07-09T09:53:17;99271.81;;;21.93;54.14
59106;BME280;44891;50.204;8.132;2022-07-09T09:57:21;99273.16;;;22.33;53.73
59106;BME280;44891;50.204;8.132;2022-07-09T10:01:27;99268.09;;;22.50;52.50
59106;BME280;44891;50.204;8.132;2022-07-09T10:05:30;99266.00;;;22.29;52.35
59106;BME280;44891;50.204;8.132;2022-07-09T10:09:33;99271.28;;;22.34;52.91
59106;BME280;44891;50.204;8.132;2022-07-09T10:13:37;99266.59;;;22.02;54.09
59106;BME280;44891;50.204;8.132;2022-07-09T10:17:40;99259.47;;;22.53;52.67
59106;BME280;44891;50.204;8.132;2022-07-09T10:21:51;99255.81;;;23.15;51.40
59106;BME280;44891;50.204;8.132;2022-07-09T10:25:54;99251.22;;;23.01;52.24
59106;BME280;44891;50.204;8.132;2022-07-09T10:29:59;99250.94;;;22.84;52.19
59106;BME280;44891;50.204;8.132;2022-07-09T10:34:07;99252.00;;;22.88;51.83
59106;BME280;44891;50.204;8.132;2022-07-09T10:42:17;99225.16;;;23.07;51.87
59106;BME280;44891;50.204;8.132;2022-07-09T10:46:20;99218.13;;;23.25;50.30
59106;BME280;44891;50.204;8.132;2022-07-09T10:50:26;99217.53;;;23.55;50.63
59106;BME280;44891;50.204;8.132;2022-07-09T10:54:29;99231.41;;;23.30;48.25
59106;BME280;44891;50.204;8.132;2022-07-09T10:58:31;99226.34;;;23.15;48.63
59106;BME280;44891;50.204;8.132;2022-07-09T11:02:33;99212.00;;;23.66;47.66
59106;BME280;44891;50.204;8.132;2022-07-09T11:06:45;99208.19;;;24.30;46.25
59106;BME280;44891;50.204;8.132;2022-07-09T11:10:47;99195.78;;;24.21;45.63
59106;BME280;44891;50.204;8.132;2022-07-09T11:14:50;99190.22;;;23.67;45.93
59106;BME280;44891;50.204;8.132;2022-07-09T11:18:52;99199.44;;;23.88;48.06
59106;BME280;44891;50.204;8.132;2022-07-09T11:22:57;99193.78;;;23.76;47.91
59106;BME280;44891;50.204;8.132;2022-07-09T11:27:01;99191.91;;;23.63;48.16
59106;BME280;44891;50.204;8.132;2022-07-09T11:31:04;99186.84;;;23.62;46.89
59106;BME280;44891;50.204;8.132;2022-07-09T11:35:07;99182.69;;;24.05;45.42
59106;BME280;44891;50.204;8.132;2022-07-09T11:39:21;99188.19;;;24.23;45.50
59106;BME280;44891;50.204;8.132;2022-07-09T11:43:23;99186.63;;;24.22;43.35
59106;BME280;44891;50.204;8.132;2022-07-09T11:47:32;99178.16;;;23.92;42.68
59106;BME280;44891;50.204;8.132;2022-07-09T11:51:34;99177.56;;;23.95;42.54
59106;BME280;44891;50.204;8.132;2022-07-09T11:55:40;99174.44;;;23.66;43.81
59106;BME280;44891;50.204;8.132;2022-07-09T11:59:42;99170.78;;;23.62;45.39
59106;BME280;44891;50.204;8.132;2022-07-09T12:03:47;99176.81;;;23.67;44.72
59106;BME280;44891;50.204;8.132;2022-07-09T12:07:51;99176.47;;;23.82;44.99
59106;BME280;44891;50.204;8.132;2022-07-09T12:11:54;99170.50;;;24.22;44.66
59106;BME280;44891;50.204;8.132;2022-07-09T12:15:57;99162.84;;;24.82;42.94
59106;BME280;44891;50.204;8.132;2022-07-09T12:19:59;99148.91;;;24.72;43.91
59106;BME280;44891;50.204;8.132;2022-07-09T12:24:01;99169.94;;;24.70;44.26
59106;BME280;44891;50.204;8.132;2022-07-09T12:28:04;99158.97;;;23.99;45.65
59106;BME280;44891;50.204;8.132;2022-07-09T12:32:07;99143.19;;;23.83;45.69
59106;BME280;44891;50.204;8.132;2022-07-09T12:36:09;99148.88;;;24.40;45.49
59106;BME280;44891;50.204;8.132;2022-07-09T12:40:12;99142.38;;;24.95;43.26
59106;BME280;44891;50.204;8.132;2022-07-09T12:44:15;99141.25;;;24.56;43.70
59106;BME280;44891;50.204;8.132;2022-07-09T12:48:17;99140.34;;;23.80;45.36
59106;BME280;44891;50.204;8.132;2022-07-09T12:52:19;99137.31;;;24.62;44.35
59106;BME280;44891;50.204;8.132;2022-07-09T12:56:22;99130.66;;;24.15;45.79
59106;BME280;44891;50.204;8.132;2022-07-09T13:00:25;99128.41;;;24.08;46.08
59106;BME280;44891;50.204;8.132;2022-07-09T13:04:27;99127.56;;;24.22;45.54
59106;BME280;44891;50.204;8.132;2022-07-09T13:08:29;99117.38;;;24.32;44.45
59106;BME280;44891;50.204;8.132;2022-07-09T13:12:31;99113.91;;;24.32;44.17
59106;BME280;44891;50.204;8.132;2022-07-09T13:16:36;99114.81;;;24.27;43.84
59106;BME280;44891;50.204;8.132;2022-07-09T13:20:38;99100.78;;;24.08;44.56
59106;BME280;44891;50.204;8.132;2022-07-09T13:24:40;99098.88;;;23.86;44.14
59106;BME280;44891;50.204;8.132;2022-07-09T13:28:42;99085.38;;;23.91;43.45
59106;BME280;44891;50.204;8.132;2022-07-09T13:32:46;99088.22;;;23.58;43.56
59106;BME280;44891;50.204;8.132;2022-07-09T13:36:48;99095.31;;;23.41;44.31
59106;BME280;44891;50.204;8.132;2022-07-09T13:40:51;99088.16;;;23.22;44.70
59106;BME280;44891;50.204;8.132;2022-07-09T13:44:53;99080.59;;;23.52;44.62
59106;BME280;44891;50.204;8.132;2022-07-09T13:48:56;99074.44;;;23.87;44.02
59106;BME280;44891;50.204;8.132;2022-07-09T13:52:59;99072.56;;;24.64;42.12
59106;BME280;44891;50.204;8.132;2022-07-09T13:57:02;99068.09;;;24.59;42.58
59106;BME280;44891;50.204;8.132;2022-07-09T14:01:05;99060.50;;;24.53;41.78
59106;BME280;44891;50.204;8.132;2022-07-09T14:05:08;99035.41;;;24.57;41.89
59106;BME280;44891;50.204;8.132;2022-07-09T14:09:11;99038.28;;;24.70;41.76
59106;BME280;44891;50.204;8.132;2022-07-09T14:13:13;99006.22;;;24.33;42.38
59106;BME280;44891;50.204;8.132;2022-07-09T14:17:15;99051.97;;;24.28;44.01
59106;BME280;44891;50.204;8.132;2022-07-09T14:21:19;99041.75;;;24.08;42.40
59106;BME280;44891;50.204;8.132;2022-07-09T14:25:22;99034.19;;;24.72;41.83
59106;BME280;44891;50.204;8.132;2022-07-09T14:29:26;99027.78;;;24.99;41.46
59106;BME280;44891;50.204;8.132;2022-07-09T14:33:28;99022.47;;;25.25;41.52
59106;BME280;44891;50.204;8.132;2022-07-09T14:37:32;99013.16;;;25.23;40.09
59106;BME280;44891;50.204;8.132;2022-07-09T14:41:34;99012.19;;;25.10;39.82
59106;BME280;44891;50.204;8.132;2022-07-09T14:45:36;99012.44;;;25.00;41.37
59106;BME280;44891;50.204;8.132;2022-07-09T14:49:39;99018.63;;;24.52;42.45
59106;BME280;44891;50.204;8.132;2022-07-09T14:53:42;99012.09;;;24.13;42.96
59106;BME280;44891;50.204;8.132;2022-07-09T14:57:44;99011.22;;;23.73;44.52
59106;BME280;44891;50.204;8.132;2022-07-09T15:01:47;99006.38;;;23.61;44.50
59106;BME280;44891;50.204;8.132;2022-07-09T15:05:49;99008.06;;;23.57;44.20
59106;BME280;44891;50.204;8.132;2022-07-09T15:09:53;99008.25;;;23.38;45.92
59106;BME280;44891;50.204;8.132;2022-07-09T15:13:55;98999.72;;;23.22;45.58
59106;BME280;44891;50.204;8.132;2022-07-09T15:17:57;99003.84;;;23.06;46.34
59106;BME280;44891;50.204;8.132;2022-07-09T15:21:59;98992.06;;;22.93;46.55
59106;BME280;44891;50.204;8.132;2022-07-09T15:26:03;98992.47;;;22.87;46.90
59106;BME280;44891;50.204;8.132;2022-07-09T15:30:06;98991.53;;;22.77;47.25
59106;BME280;44891;50.204;8.132;2022-07-09T15:34:09;98990.84;;;22.58;47.75
59106;BME280;44891;50.204;8.132;2022-07-09T15:38:11;98990.84;;;22.31;49.20
59106;BME280;44891;50.204;8.132;2022-07-09T15:42:14;99001.75;;;22.34;48.48
59106;BME280;44891;50.204;8.132;2022-07-09T15:46:16;99011.75;;;21.96;49.47
59106;BME280;44891;50.204;8.132;2022-07-09T15:50:19;99033.34;;;21.86;52.14
59106;BME280;44891;50.204;8.132;2022-07-09T15:54:22;99043.03;;;21.63;55.62
59106;BME280;44891;50.204;8.132;2022-07-09T15:58:25;99054.06;;;20.95;60.79
59106;BME280;44891;50.204;8.132;2022-07-09T16:02:28;99069.34;;;20.36;66.62
59106;BME280;44891;50.204;8.132;2022-07-09T16:06:30;99077.09;;;19.98;69.86
59106;BME280;44891;50.204;8.132;2022-07-09T16:10:33;99084.66;;;19.86;71.68
59106;BME280;44891;50.204;8.132;2022-07-09T16:14:36;99094.84;;;19.74;72.98
59106;BME280;44891;50.204;8.132;2022-07-09T16:18:38;99103.19;;;19.02;77.53
59106;BME280;44891;50.204;8.132;2022-07-09T16:22:40;99101.84;;;19.05;77.38
59106;BME280;44891;50.204;8.132;2022-07-09T16:26:42;99095.13;;;19.23;77.20
59106;BME280;44891;50.204;8.132;2022-07-09T16:30:46;99102.63;;;19.00;77.16
59106;BME280;44891;50.204;8.132;2022-07-09T16:34:48;99094.91;;;19.09;76.72
59106;BME280;44891;50.204;8.132;2022-07-09T16:38:50;99083.91;;;19.21;78.05
59106;BME280;44891;50.204;8.132;2022-07-09T16:42:52;99066.91;;;19.17;79.13
59106;BME280;44891;50.204;8.132;2022-07-09T16:46:55;99064.75;;;19.24;79.96
59106;BME280;44891;50.204;8.132;2022-07-09T16:50:57;99061.91;;;18.95;82.49
59106;BME280;44891;50.204;8.132;2022-07-09T16:55:00;99060.88;;;18.96;82.88
59106;BME280;44891;50.204;8.132;2022-07-09T16:59:02;99061.56;;;19.22;81.64
59106;BME280;44891;50.204;8.132;2022-07-09T17:03:05;99053.88;;;19.15;81.84
59106;BME280;44891;50.204;8.132;2022-07-09T17:07:11;99057.00;;;19.27;77.56
59106;BME280;44891;50.204;8.132;2022-07-09T17:11:13;99055.50;;;19.61;77.68
59106;BME280;44891;50.204;8.132;2022-07-09T17:15:16;99052.94;;;19.85;76.57
59106;BME280;44891;50.204;8.132;2022-07-09T17:19:19;99051.56;;;19.92;76.81
59106;BME280;44891;50.204;8.132;2022-07-09T17:23:21;99004.75;;;19.81;76.74
59106;BME280;44891;50.204;8.132;2022-07-09T17:27:23;99038.13;;;20.07;76.98
59106;BME280;44891;50.204;8.132;2022-07-09T17:31:25;99030.59;;;20.15;75.24
59106;BME280;44891;50.204;8.132;2022-07-09T17:35:31;99040.41;;;20.19;75.90
59106;BME280;44891;50.204;8.132;2022-07-09T17:39:33;99043.44;;;20.07;77.00
59106;BME280;44891;50.204;8.132;2022-07-09T17:43:35;99034.47;;;19.93;77.93
59106;BME280;44891;50.204;8.132;2022-07-09T17:47:37;99034.22;;;19.95;77.72
59106;BME280;44891;50.204;8.132;2022-07-09T17:51:40;99025.56;;;20.08;77.42
59106;BME280;44891;50.204;8.132;2022-07-09T17:55:43;99032.94;;;19.87;79.85
59106;BME280;44891;50.204;8.132;2022-07-09T17:59:45;99033.19;;;19.91;77.84
59106;BME280;44891;50.204;8.132;2022-07-09T18:03:47;99034.69;;;20.02;77.48
59106;BME280;44891;50.204;8.132;2022-07-09T18:07:51;99024.09;;;19.92;76.98
59106;BME280;44891;50.204;8.132;2022-07-09T18:11:54;99031.47;;;20.05;75.58
59106;BME280;44891;50.204;8.132;2022-07-09T18:15:56;99021.03;;;20.08;76.20
59106;BME280;44891;50.204;8.132;2022-07-09T18:19:58;99013.63;;;20.00;75.46
59106;BME280;44891;50.204;8.132;2022-07-09T18:24:01;99016.72;;;19.83;75.61
59106;BME280;44891;50.204;8.132;2022-07-09T18:28:04;99013.84;;;19.75;76.19
59106;BME280;44891;50.204;8.132;2022-07-09T18:32:07;99015.50;;;19.66;76.99
59106;BME280;44891;50.204;8.132;2022-07-09T18:36:09;99020.91;;;19.50;78.50
59106;BME280;44891;50.204;8.132;2022-07-09T18:40:13;99006.31;;;19.43;79.08
59106;BME280;44891;50.204;8.132;2022-07-09T18:44:15;99013.59;;;19.27;80.16
59106;BME280;44891;50.204;8.132;2022-07-09T18:48:17;99013.06;;;19.25;80.74
59106;BME280;44891;50.204;8.132;2022-07-09T18:52:19;99016.84;;;19.14;80.90
59106;BME280;44891;50.204;8.132;2022-07-09T18:56:22;99010.31;;;18.91;82.26
59106;BME280;44891;50.204;8.132;2022-07-09T19:00:25;99016.44;;;18.86;82.66
59106;BME280;44891;50.204;8.132;2022-07-09T19:04:27;99011.44;;;18.64;84.48
59106;BME280;44891;50.204;8.132;2022-07-09T19:08:29;99014.38;;;18.68;84.24
59106;BME280;44891;50.204;8.132;2022-07-09T19:12:33;99014.91;;;18.60;84.05
59106;BME280;44891;50.204;8.132;2022-07-09T19:16:36;99011.47;;;18.54;84.50
59106;BME280;44891;50.204;8.132;2022-07-09T19:20:39;99007.25;;;18.38;86.12
59106;BME280;44891;50.204;8.132;2022-07-09T19:24:41;98998.50;;;18.22;85.62
59106;BME280;44891;50.204;8.132;2022-07-09T19:28:45;99015.00;;;18.24;86.07
59106;BME280;44891;50.204;8.132;2022-07-09T19:32:47;99009.94;;;18.17;86.06
59106;BME280;44891;50.204;8.132;2022-07-09T19:37:07;99016.09;;;18.03;86.41
59106;BME280;44891;50.204;8.132;2022-07-09T19:41:09;99025.38;;;17.95;86.39
59106;BME280;44891;50.204;8.132;2022-07-09T19:45:13;99030.09;;;17.62;88.53
59106;BME280;44891;50.204;8.132;2022-07-09T19:49:15;99025.88;;;17.66;87.49
59106;BME280;44891;50.204;8.132;2022-07-09T19:53:17;99022.94;;;17.63;86.22
59106;BME280;44891;50.204;8.132;2022-07-09T19:57:19;99029.81;;;17.54;87.34
59106;BME280;44891;50.204;8.132;2022-07-09T20:01:22;99034.59;;;17.47;87.72
59106;BME280;44891;50.204;8.132;2022-07-09T20:05:25;99035.41;;;17.52;86.93
59106;BME280;44891;50.204;8.132;2022-07-09T20:09:27;99040.94;;;17.35;88.26
59106;BME280;44891;50.204;8.132;2022-07-09T20:13:29;99039.88;;;17.36;88.45
59106;BME280;44891;50.204;8.132;2022-07-09T20:17:32;99051.56;;;17.40;88.64
59106;BME280;44891;50.204;8.132;2022-07-09T20:21:35;99044.97;;;17.43;86.88
59106;BME280;44891;50.204;8.132;2022-07-09T20:25:37;99052.88;;;17.28;87.17
59106;BME280;44891;50.204;8.132;2022-07-09T20:29:39;99050.75;;;17.25;87.87
59106;BME280;44891;50.204;8.132;2022-07-09T20:33:43;99049.38;;;17.12;88.08
59106;BME280;44891;50.204;8.132;2022-07-09T20:37:45;99054.94;;;17.05;87.95
59106;BME280;44891;50.204;8.132;2022-07-09T20:41:47;99055.16;;;16.99;88.44
59106;BME280;44891;50.204;8.132;2022-07-09T20:45:49;99053.00;;;16.96;87.44
59106;BME280;44891;50.204;8.132;2022-07-09T20:49:52;99055.09;;;16.89;87.64
59106;BME280;44891;50.204;8.132;2022-07-09T20:53:55;99052.59;;;16.67;88.00
59106;BME280;44891;50.204;8.132;2022-07-09T20:57:57;99046.97;;;16.63;88.35
59106;BME280;44891;50.204;8.132;2022-07-09T21:01:59;99046.66;;;16.54;88.52
59106;BME280;44891;50.204;8.132;2022-07-09T21:06:03;99048.13;;;16.35;88.02
59106;BME280;44891;50.204;8.132;2022-07-09T21:10:06;99059.56;;;16.03;90.04
59106;BME280;44891;50.204;8.132;2022-07-09T21:14:08;99065.44;;;16.11;88.38
59106;BME280;44891;50.204;8.132;2022-07-09T21:18:10;99060.34;;;16.04;88.52
59106;BME280;44891;50.204;8.132;2022-07-09T21:22:31;99066.31;;;15.89;88.61
59106;BME280;44891;50.204;8.132;2022-07-09T21:26:33;99061.59;;;15.91;89.30
59106;BME280;44891;50.204;8.132;2022-07-09T21:30:36;99055.28;;;15.70;88.94
59106;BME280;44891;50.204;8.132;2022-07-09T21:34:38;99071.69;;;15.67;89.43